Time;durP1;ratioP1;P1;durP2;ratioP2;P2;SDS_P1;SDS_P2;PMS_P1;PMS_P2;Temp;Humidity;BMP_temperature;BMP_pressure;BME280_temperature;BME280_humidity;BME280_pressure;Samples;Min_cycle;Max_cycle;Signal;HPM_P1;HPM_P2
2022/05/15 00:00:40;;;;;;;;;;;;;;;12.90;100.00;99308.97;5099425;28;19930;-76
2022/05/15 00:03:11;;;;;;;;;;;;;;;11.79;100.00;99313.50;5099375;28;20101;-76
2022/05/15 00:05:38;;;;;;;;;;;;;;;12.12;100.00;99304.91;5099342;28;19988;-76
2022/05/15 00:08:05;;;;;;;;;;;;;;;11.60;100.00;99305.81;5117421;28;20010;-76
2022/05/15 00:10:32;;;;;;;;;;;;;;;11.54;100.00;99311.06;5117032;28;19931;-76
2022/05/15 00:12:59;;;;;;;;;;;;;;;11.47;100.00;99314.00;5117241;28;20367;-76
2022/05/15 00:15:26;;;;;;;;;;;;;;;12.16;100.00;99316.06;5082244;28;19974;-76
2022/05/15 00:17:54;;;;;;;;;;;;;;;12.53;100.00;99313.72;5117239;28;20256;-76
2022/05/15 00:20:33;;;;;;;;;;;;;;;12.76;100.00;99298.84;5098824;28;20378;-76
2022/05/15 00:23:11;;;;;;;;;;;;;;;12.56;100.00;99304.47;5098836;28;19963;-76
2022/05/15 00:25:39;;;;;;;;;;;;;;;12.23;100.00;99293.50;5099067;28;19927;-76
2022/05/15 00:28:07;;;;;;;;;;;;;;;12.24;100.00;99298.69;5098835;28;20316;-76
2022/05/15 00:30:35;;;;;;;;;;;;;;;12.36;100.00;99303.66;5098896;28;20421;-76
2022/05/15 00:33:03;;;;;;;;;;;;;;;11.80;100.00;99299.06;5116847;28;20010;-76
2022/05/15 00:35:31;;;;;;;;;;;;;;;11.35;100.00;99294.19;5098712;28;19924;-76
2022/05/15 00:37:58;;;;;;;;;;;;;;;11.44;100.00;99286.06;5098788;28;20006;-76
2022/05/15 00:40:25;;;;;;;;;;;;;;;11.72;100.00;99296.84;5098385;28;19923;-76
2022/05/15 00:42:51;;;;;;;;;;;;;;;12.43;100.00;99302.72;5081808;28;19947;-76
2022/05/15 00:45:20;;;;;;;;;;;;;;;12.89;100.00;99290.56;5098718;28;19924;-76
2022/05/15 00:47:47;;;;;;;;;;;;;;;13.16;100.00;99279.97;5098662;28;20027;-76
2022/05/15 00:50:18;;;;;;;;;;;;;;;12.28;100.00;99273.41;5098356;28;20006;-76
2022/05/15 00:52:48;;;;;;;;;;;;;;;12.35;100.00;99273.25;5098304;28;19928;-76
2022/05/15 00:55:18;;;;;;;;;;;;;;;12.92;100.00;99273.66;5081465;28;20022;-76
2022/05/15 00:57:49;;;;;;;;;;;;;;;13.23;100.00;99277.00;5098335;28;19928;-76
2022/05/15 01:00:16;;;;;;;;;;;;;;;13.49;100.00;99267.56;5081170;28;20432;-76
2022/05/15 01:02:58;;;;;;;;;;;;;;;13.36;100.00;99264.63;5098801;28;20018;-76
2022/05/15 01:05:31;;;;;;;;;;;;;;;13.06;100.00;99273.38;5098942;28;19930;-76
2022/05/15 01:07:59;;;;;;;;;;;;;;;13.33;100.00;99273.16;5098098;28;19924;-76
2022/05/15 01:10:28;;;;;;;;;;;;;;;13.50;100.00;99261.50;5098448;28;20367;-76
2022/05/15 01:12:58;;;;;;;;;;;;;;;13.33;100.00;99271.13;5097996;28;19923;-76
2022/05/15 01:15:28;;;;;;;;;;;;;;;13.60;100.00;99265.28;5098534;28;19959;-76
2022/05/15 01:18:01;;;;;;;;;;;;;;;13.73;100.00;99271.75;5081551;28;20007;-76
2022/05/15 01:20:31;;;;;;;;;;;;;;;13.56;100.00;99273.78;5098306;28;19962;-76
2022/05/15 01:22:59;;;;;;;;;;;;;;;13.77;100.00;99278.06;5097610;28;19970;-76
2022/05/15 01:25:33;;;;;;;;;;;;;;;13.60;100.00;99274.47;5097656;28;19924;-77
2022/05/15 01:28:04;;;;;;;;;;;;;;;13.62;100.00;99280.44;5080695;28;19924;-76
2022/05/15 01:30:33;;;;;;;;;;;;;;;13.70;100.00;99270.63;5097175;28;19930;-76
2022/05/15 01:33:00;;;;;;;;;;;;;;;12.87;100.00;99276.97;5097333;28;19930;-76
2022/05/15 01:35:28;;;;;;;;;;;;;;;12.53;100.00;99274.50;5080946;28;19930;-76
2022/05/15 01:37:59;;;;;;;;;;;;;;;13.26;100.00;99270.50;5097303;28;19970;-76
2022/05/15 01:40:26;;;;;;;;;;;;;;;12.85;100.00;99273.00;5097473;28;19924;-76
2022/05/15 01:42:53;;;;;;;;;;;;;;;13.15;100.00;99265.16;5097477;28;20018;-76
2022/05/15 01:45:21;;;;;;;;;;;;;;;13.45;100.00;99270.44;5097336;28;19930;-76
2022/05/15 01:47:49;;;;;;;;;;;;;;;13.60;100.00;99273.69;5080181;28;20283;-76
2022/05/15 01:50:17;;;;;;;;;;;;;;;13.40;100.00;99281.41;5097038;28;19923;-77
2022/05/15 01:52:44;;;;;;;;;;;;;;;13.48;100.00;99277.22;5096792;28;19923;-76
2022/05/15 01:55:11;;;;;;;;;;;;;;;12.97;100.00;99289.16;5097067;28;20390;-76
2022/05/15 01:57:41;;;;;;;;;;;;;;;13.28;100.00;99284.91;5097246;28;19984;-76
2022/05/15 02:00:09;;;;;;;;;;;;;;;13.12;100.00;99296.06;5096959;28;19923;-76
2022/05/15 02:02:39;;;;;;;;;;;;;;;13.30;100.00;99299.28;5114926;28;19930;-76
2022/05/15 02:05:07;;;;;;;;;;;;;;;13.14;100.00;99299.25;5080013;28;19930;-76
2022/05/15 02:07:34;;;;;;;;;;;;;;;12.83;100.00;99303.53;5079620;28;19924;-76
2022/05/15 02:10:03;;;;;;;;;;;;;;;13.48;100.00;99299.66;5079888;28;19924;-76
2022/05/15 02:12:30;;;;;;;;;;;;;;;13.28;100.00;99285.69;5096583;28;19924;-76
2022/05/15 02:14:57;;;;;;;;;;;;;;;12.95;100.00;99288.84;5096701;28;19931;-76
2022/05/15 02:17:24;;;;;;;;;;;;;;;13.68;100.00;99272.28;5096523;28;19959;-76
2022/05/15 02:19:51;;;;;;;;;;;;;;;14.03;100.00;99282.59;5096240;28;19924;-76
2022/05/15 02:22:18;;;;;;;;;;;;;;;13.93;100.00;99281.66;5096303;28;19928;-76
2022/05/15 02:24:45;;;;;;;;;;;;;;;14.13;100.00;99285.13;5079709;28;19928;-76
2022/05/15 02:27:13;;;;;;;;;;;;;;;14.03;100.00;99274.19;5096425;28;19954;-76
2022/05/15 02:29:40;;;;;;;;;;;;;;;13.95;100.00;99278.44;5096544;28;20450;-76
2022/05/15 02:32:07;;;;;;;;;;;;;;;13.10;100.00;99276.88;5096333;28;19971;-76
2022/05/15 02:34:37;;;;;;;;;;;;;;;13.85;100.00;99276.66;5096648;28;19924;-76
2022/05/15 02:37:06;;;;;;;;;;;;;;;14.04;100.00;99267.34;5114323;28;19942;-76
2022/05/15 02:39:33;;;;;;;;;;;;;;;14.21;100.00;99269.66;5079608;28;19953;-76
2022/05/15 02:42:01;;;;;;;;;;;;;;;14.00;100.00;99270.25;5096218;28;19924;-76
2022/05/15 02:44:30;;;;;;;;;;;;;;;14.17;100.00;99271.00;5096251;28;19924;-76
2022/05/15 02:46:57;;;;;;;;;;;;;;;14.14;100.00;99257.84;5079172;28;19955;-76
2022/05/15 02:52:10;;;;;;;;;;;;;;;14.18;100.00;99270.56;5095827;28;19931;-76
2022/05/15 02:54:38;;;;;;;;;;;;;;;13.83;100.00;99265.88;5095340;28;19931;-77
2022/05/15 02:57:08;;;;;;;;;;;;;;;14.10;100.00;99265.56;5095693;28;19930;-76
2022/05/15 02:59:37;;;;;;;;;;;;;;;14.08;100.00;99270.84;5095824;28;19978;-76
2022/05/15 03:02:04;;;;;;;;;;;;;;;13.54;100.00;99267.03;5095977;28;19924;-77
2022/05/15 03:04:32;;;;;;;;;;;;;;;13.96;100.00;99265.94;5095944;28;19966;-77
2022/05/15 03:06:59;;;;;;;;;;;;;;;14.19;100.00;99260.09;5096141;28;19924;-76
2022/05/15 03:09:26;;;;;;;;;;;;;;;13.85;100.00;99287.91;5096040;28;20014;-77
2022/05/15 03:11:53;;;;;;;;;;;;;;;14.16;100.00;99297.53;5079187;28;19961;-77
2022/05/15 03:14:21;;;;;;;;;;;;;;;14.32;100.00;99291.88;5079090;28;19930;-77
2022/05/15 03:16:48;;;;;;;;;;;;;;;14.20;100.00;99301.03;5095838;28;19923;-77
2022/05/15 03:19:16;;;;;;;;;;;;;;;14.56;100.00;99296.03;5095893;28;19924;-77
2022/05/15 03:21:43;;;;;;;;;;;;;;;13.70;100.00;99311.94;5114033;28;19950;-76
2022/05/15 03:24:12;;;;;;;;;;;;;;;14.43;100.00;99307.22;5113806;28;20458;-76
2022/05/15 03:26:41;;;;;;;;;;;;;;;15.06;100.00;99296.16;5095829;28;19936;-76
2022/05/15 03:29:08;;;;;;;;;;;;;;;15.07;100.00;99308.22;5095835;28;20294;-77
2022/05/15 03:31:36;;;;;;;;;;;;;;;15.41;100.00;99305.56;5081143;28;20302;-77
2022/05/15 03:34:03;;;;;;;;;;;;;;;15.66;100.00;99303.53;5099621;28;19977;-77
2022/05/15 03:36:31;;;;;;;;;;;;;;;15.54;100.00;99295.88;5118178;28;19930;-77
2022/05/15 03:38:58;;;;;;;;;;;;;;;15.61;100.00;99292.84;5082831;28;19931;-77
2022/05/15 03:41:25;;;;;;;;;;;;;;;15.65;100.00;99299.13;5099768;28;20014;-77
2022/05/15 03:43:52;;;;;;;;;;;;;;;14.90;100.00;99313.13;5099484;28;19966;-77
2022/05/15 03:46:19;;;;;;;;;;;;;;;15.57;100.00;99302.66;5099523;28;19994;-77
2022/05/15 03:48:46;;;;;;;;;;;;;;;15.64;100.00;99306.03;5099124;28;19924;-77
2022/05/15 03:51:16;;;;;;;;;;;;;;;15.73;100.00;99303.31;5066220;28;19924;-77
2022/05/15 03:53:43;;;;;;;;;;;;;;;15.43;100.00;99309.53;5099275;28;19928;-77
2022/05/15 03:56:11;;;;;;;;;;;;;;;15.29;100.00;99318.38;5082587;28;19924;-77
2022/05/15 03:58:39;;;;;;;;;;;;;;;15.64;100.00;99308.84;5099150;28;19924;-77
2022/05/15 04:01:06;;;;;;;;;;;;;;;15.59;100.00;99295.31;5082128;28;19924;-77
2022/05/15 04:03:33;;;;;;;;;;;;;;;15.34;100.00;99298.09;5065578;28;20039;-77
2022/05/15 04:06:01;;;;;;;;;;;;;;;15.19;100.00;99280.06;5117222;28;20018;-76
2022/05/15 04:08:30;;;;;;;;;;;;;;;14.90;100.00;99270.94;5099422;28;19930;-76
2022/05/15 04:10:57;;;;;;;;;;;;;;;15.34;100.00;99255.09;5098977;28;19928;-77
2022/05/15 04:13:25;;;;;;;;;;;;;;;15.46;100.00;99238.22;5065496;28;19931;-77
2022/05/15 04:15:52;;;;;;;;;;;;;;;15.48;100.00;99226.50;5081960;28;19923;-77
2022/05/15 04:18:20;;;;;;;;;;;;;;;15.45;100.00;99193.63;5098919;28;19924;-77
2022/05/15 04:20:48;;;;;;;;;;;;;;;15.45;100.00;99168.28;5098676;28;19938;-77
2022/05/15 04:23:15;;;;;;;;;;;;;;;14.49;100.00;99173.31;5065352;28;19946;-77
2022/05/15 04:25:43;;;;;;;;;;;;;;;14.06;100.00;99186.19;5098882;28;19977;-77
2022/05/15 04:28:11;;;;;;;;;;;;;;;14.38;100.00;99194.53;5098757;28;19931;-77
2022/05/15 04:30:38;;;;;;;;;;;;;;;14.91;100.00;99182.47;5098696;28;19946;-77
2022/05/15 04:33:06;;;;;;;;;;;;;;;15.31;100.00;99194.81;5116494;28;20037;-77
2022/05/15 04:35:34;;;;;;;;;;;;;;;15.43;100.00;99188.44;5116891;28;19924;-77
2022/05/15 04:38:01;;;;;;;;;;;;;;;14.92;100.00;99181.22;5116912;28;20263;-77
2022/05/15 04:40:28;;;;;;;;;;;;;;;14.89;100.00;99199.00;5116496;28;20336;-77
2022/05/15 04:42:55;;;;;;;;;;;;;;;15.22;100.00;99203.16;5116093;28;20344;-77
2022/05/15 04:45:22;;;;;;;;;;;;;;;15.25;100.00;99198.69;5081521;28;20295;-76
2022/05/15 04:47:49;;;;;;;;;;;;;;;14.72;100.00;99203.19;5116297;28;20292;-76
2022/05/15 04:50:18;;;;;;;;;;;;;;;14.82;100.00;99207.66;5098234;28;19924;-75
2022/05/15 04:52:45;;;;;;;;;;;;;;;14.99;100.00;99219.63;5081434;28;20263;-75
2022/05/15 04:55:13;;;;;;;;;;;;;;;15.03;100.00;99223.88;5116243;28;19977;-75
2022/05/15 04:57:40;;;;;;;;;;;;;;;14.98;100.00;99213.19;5081129;28;20022;-76
2022/05/15 05:00:09;;;;;;;;;;;;;;;15.17;100.00;99217.81;5081111;28;20026;-75
2022/05/15 05:02:36;;;;;;;;;;;;;;;15.19;100.00;99206.13;5115986;28;20290;-75
2022/05/15 05:05:06;;;;;;;;;;;;;;;14.94;100.00;99198.44;5116566;28;19930;-76
2022/05/15 05:07:33;;;;;;;;;;;;;;;14.88;100.00;99196.63;5097164;28;19930;-75
2022/05/15 05:10:00;;;;;;;;;;;;;;;14.55;100.00;99204.47;5097745;28;19923;-76
2022/05/15 05:12:27;;;;;;;;;;;;;;;14.93;100.00;99216.59;5080808;28;19931;-75
2022/05/15 05:14:54;;;;;;;;;;;;;;;15.02;100.00;99222.31;5097702;28;20572;-76
2022/05/15 05:17:21;;;;;;;;;;;;;;;15.34;100.00;99227.69;5115887;28;19927;-75
2022/05/15 05:19:48;;;;;;;;;;;;;;;15.49;100.00;99223.25;5097749;28;19930;-75
2022/05/15 05:22:15;;;;;;;;;;;;;;;15.48;100.00;99232.13;5097796;28;20007;-76
2022/05/15 05:24:42;;;;;;;;;;;;;;;15.58;100.00;99231.78;5115608;28;19924;-76
2022/05/15 05:27:09;;;;;;;;;;;;;;;15.53;100.00;99232.34;5097566;28;20018;-76
2022/05/15 05:29:36;;;;;;;;;;;;;;;15.29;100.00;99225.47;5115473;28;19999;-76
2022/05/15 05:32:03;;;;;;;;;;;;;;;14.95;100.00;99230.19;5115442;28;19931;-75
2022/05/15 05:34:31;;;;;;;;;;;;;;;14.39;100.00;99255.13;5097375;28;19966;-75
2022/05/15 05:36:58;;;;;;;;;;;;;;;14.69;100.00;99246.25;5115510;28;19966;-75
2022/05/15 05:39:29;;;;;;;;;;;;;;;15.07;100.00;99235.03;5115265;28;20393;-75
2022/05/15 05:41:56;;;;;;;;;;;;;;;15.20;100.00;99236.63;5115378;28;19931;-75
2022/05/15 05:44:24;;;;;;;;;;;;;;;15.38;100.00;99230.44;5080161;28;20022;-76
2022/05/15 05:46:52;;;;;;;;;;;;;;;15.41;100.00;99227.53;5115333;28;19931;-76
2022/05/15 05:49:19;;;;;;;;;;;;;;;15.53;100.00;99226.72;5115131;28;20382;-76
2022/05/15 05:51:47;;;;;;;;;;;;;;;15.27;100.00;99208.25;5080181;28;19924;-76
2022/05/15 05:54:14;;;;;;;;;;;;;;;14.59;100.00;99226.84;5114186;28;20382;-75
2022/05/15 05:56:41;;;;;;;;;;;;;;;14.12;100.00;99237.81;5096926;28;19923;-75
2022/05/15 05:59:08;;;;;;;;;;;;;;;13.92;100.00;99237.16;5096721;28;19965;-77
2022/05/15 06:01:35;;;;;;;;;;;;;;;14.20;100.00;99231.56;5115063;28;19928;-76
2022/05/15 06:06:50;;;;;;;;;;;;;;;14.63;100.00;99221.94;5096979;28;20390;-75
2022/05/15 06:09:17;;;;;;;;;;;;;;;14.92;100.00;99215.00;5096564;28;19924;-75
2022/05/15 06:11:44;;;;;;;;;;;;;;;15.48;100.00;99216.00;5114705;28;20447;-75
2022/05/15 06:14:12;;;;;;;;;;;;;;;15.94;100.00;99200.34;5096311;28;19946;-75
2022/05/15 06:16:39;;;;;;;;;;;;;;;16.19;100.00;99209.50;5063133;28;19972;-75
2022/05/15 06:19:06;;;;;;;;;;;;;;;16.36;100.00;99207.25;5114731;28;20301;-75
2022/05/15 06:21:33;;;;;;;;;;;;;;;16.46;100.00;99208.16;5095117;28;20381;-75
2022/05/15 06:24:00;;;;;;;;;;;;;;;16.53;100.00;99205.06;5079349;28;20440;-75
2022/05/15 06:26:27;;;;;;;;;;;;;;;16.60;100.00;99199.16;5096988;28;20373;-75
2022/05/15 06:28:54;;;;;;;;;;;;;;;16.49;100.00;99210.06;5114580;28;20335;-75
2022/05/15 06:31:21;;;;;;;;;;;;;;;16.60;100.00;99210.44;5096905;28;19924;-75
2022/05/15 06:33:48;;;;;;;;;;;;;;;16.64;100.00;99211.88;5078970;28;19923;-75
2022/05/15 06:36:15;;;;;;;;;;;;;;;16.44;100.00;99219.09;5114361;28;19970;-75
2022/05/15 06:38:42;;;;;;;;;;;;;;;16.22;100.00;99207.81;5114427;28;20370;-75
2022/05/15 06:41:11;;;;;;;;;;;;;;;16.42;100.00;99215.94;5091360;28;19931;-75
2022/05/15 06:43:38;;;;;;;;;;;;;;;16.56;100.00;99204.13;5086828;28;19924;-75
2022/05/15 06:46:05;;;;;;;;;;;;;;;16.25;100.00;99202.00;5100574;28;19928;-75
2022/05/15 06:50:19;;;;;;;;;;;;;;;16.22;100.00;99202.94;5094243;27;19916;-76
2022/05/15 06:52:46;;;;;;;;;;;;;;;16.23;100.00;99193.25;5056351;28;19974;-76
2022/05/15 06:55:15;;;;;;;;;;;;;;;16.60;100.00;99190.69;5091233;28;20023;-76
2022/05/15 06:57:42;;;;;;;;;;;;;;;16.61;100.00;99197.91;5073026;28;19924;-76
2022/05/15 07:00:11;;;;;;;;;;;;;;;16.78;100.00;99208.50;5091081;28;19924;-76
2022/05/15 07:02:41;;;;;;;;;;;;;;;16.79;100.00;99206.47;5089781;28;19924;-76
2022/05/15 07:05:09;;;;;;;;;;;;;;;16.89;100.00;99202.47;5095112;28;19928;-76
2022/05/15 07:07:38;;;;;;;;;;;;;;;16.96;100.00;99205.81;5062408;28;20204;-76
2022/05/15 07:10:05;;;;;;;;;;;;;;;16.83;100.00;99207.91;5101274;28;19924;-76
2022/05/15 07:12:32;;;;;;;;;;;;;;;17.19;100.00;99196.78;5109644;28;19931;-77
2022/05/15 07:15:01;;;;;;;;;;;;;;;17.51;100.00;99201.94;5111369;28;19999;-76
2022/05/15 07:17:28;;;;;;;;;;;;;;;17.44;100.00;99190.94;5076475;28;19966;-76
2022/05/15 07:19:55;;;;;;;;;;;;;;;17.75;100.00;99188.03;5109843;28;19951;-76
2022/05/15 07:22:22;;;;;;;;;;;;;;;18.08;100.00;99189.00;5109795;28;20355;-76
2022/05/15 07:24:49;;;;;;;;;;;;;;;17.88;100.00;99185.84;5109904;28;20406;-76
2022/05/15 07:27:17;;;;;;;;;;;;;;;18.17;100.00;99186.16;5110752;28;19931;-76
2022/05/15 07:29:46;;;;;;;;;;;;;;;17.35;100.00;99185.25;5093082;28;19924;-77
2022/05/15 07:32:13;;;;;;;;;;;;;;;17.55;100.00;99184.84;5110851;28;19924;-76
2022/05/15 07:34:40;;;;;;;;;;;;;;;17.62;100.00;99184.53;5109660;27;20343;-76
2022/05/15 07:37:09;;;;;;;;;;;;;;;17.08;100.00;99196.44;5109603;28;19924;-76
2022/05/15 07:39:36;;;;;;;;;;;;;;;16.73;100.00;99197.84;5110883;28;19928;-76
2022/05/15 07:42:05;;;;;;;;;;;;;;;16.66;100.00;99203.72;5106974;28;19969;-76
2022/05/15 07:44:32;;;;;;;;;;;;;;;16.54;100.00;99203.84;5110735;28;19930;-76
2022/05/15 07:46:59;;;;;;;;;;;;;;;16.35;100.00;99205.69;5110545;28;19924;-76
2022/05/15 07:49:26;;;;;;;;;;;;;;;16.14;100.00;99206.47;5091764;28;19924;-76
2022/05/15 07:51:53;;;;;;;;;;;;;;;16.12;100.00;99208.97;5109929;28;20379;-76
2022/05/15 07:54:21;;;;;;;;;;;;;;;16.30;100.00;99203.47;5110539;28;19935;-76
2022/05/15 07:56:48;;;;;;;;;;;;;;;16.24;100.00;99206.09;5109300;28;20268;-77
2022/05/15 07:59:15;;;;;;;;;;;;;;;16.23;100.00;99201.72;5092460;28;19924;-77
2022/05/15 08:01:43;;;;;;;;;;;;;;;16.20;100.00;99199.81;5095726;28;19934;-77
2022/05/15 08:04:10;;;;;;;;;;;;;;;16.38;100.00;99207.59;5096540;28;19931;-77
2022/05/15 08:09:23;;;;;;;;;;;;;;;16.60;100.00;99185.06;5095571;28;20027;-77
2022/05/15 08:11:50;;;;;;;;;;;;;;;16.36;100.00;99184.72;5095276;28;20022;-77
2022/05/15 08:14:20;;;;;;;;;;;;;;;16.34;100.00;99194.88;5096493;28;19931;-77
2022/05/15 08:16:47;;;;;;;;;;;;;;;16.53;100.00;99199.41;5095255;28;19924;-77
2022/05/15 08:24:46;;;;;;;;;;;;;;;16.44;100.00;99199.34;5096323;28;19977;-77
2022/05/15 08:27:14;;;;;;;;;;;;;;;16.63;100.00;99193.38;5096317;28;19924;-77
2022/05/15 08:29:41;;;;;;;;;;;;;;;16.91;100.00;99200.75;5095085;28;20027;-77
2022/05/15 08:32:08;;;;;;;;;;;;;;;16.91;100.00;99202.78;5095101;28;19956;-77
2022/05/15 08:34:37;;;;;;;;;;;;;;;17.12;100.00;99201.94;5094820;28;19930;-77
2022/05/15 08:37:04;;;;;;;;;;;;;;;16.91;100.00;99202.78;5096103;28;19970;-77
2022/05/15 08:39:33;;;;;;;;;;;;;;;17.08;100.00;99198.47;5077603;28;19928;-76
2022/05/15 08:42:21;;;;;;;;;;;;;;;16.95;100.00;99192.91;5094330;28;19951;-76
2022/05/15 08:44:50;;;;;;;;;;;;;;;16.93;100.00;99201.09;5096302;28;20272;-86
2022/05/15 08:47:37;;;;;;;;;;;;;;;17.21;100.00;99193.50;5096022;28;20364;-82
2022/05/15 08:50:10;;;;;;;;;;;;;;;17.56;100.00;99200.53;5125171;27;19930;-80
2022/05/15 08:52:48;;;;;;;;;;;;;;;17.66;100.00;99202.16;5094681;28;19930;-80
2022/05/15 08:55:31;;;;;;;;;;;;;;;17.60;100.00;99204.00;5095065;28;19971;-80
2022/05/15 08:58:13;;;;;;;;;;;;;;;17.28;100.00;99193.22;5094679;28;19924;-80
2022/05/15 09:00:42;;;;;;;;;;;;;;;17.79;100.00;99183.00;5094716;28;19946;-80
2022/05/15 09:03:12;;;;;;;;;;;;;;;17.66;100.00;99179.56;5095865;28;20360;-80
2022/05/15 09:05:46;;;;;;;;;;;;;;;18.27;100.00;99167.13;5094774;28;19925;-80
2022/05/15 09:08:16;;;;;;;;;;;;;;;17.52;100.00;99166.78;5095852;28;19952;-80
2022/05/15 09:10:55;;;;;;;;;;;;;;;18.38;100.00;99156.94;5095150;28;19924;-80
2022/05/15 09:13:34;;;;;;;;;;;;;;;18.97;100.00;99152.53;5093440;28;19924;-79
2022/05/15 09:16:16;;;;;;;;;;;;;;;19.13;100.00;99152.94;5085882;28;19924;-79
2022/05/15 09:18:43;;;;;;;;;;;;;;;18.52;100.00;99145.00;5079134;28;19978;-80
2022/05/15 09:21:18;;;;;;;;;;;;;;;18.66;100.00;99149.19;5082905;28;19924;-80
2022/05/15 09:31:19;;;;;;;;;;;;;;;18.83;100.00;99139.84;5016274;28;19963;-79
2022/05/15 09:33:53;;;;;;;;;;;;;;;18.99;100.00;99139.47;5032777;28;20300;-79
2022/05/15 09:36:20;;;;;;;;;;;;;;;18.74;100.00;99134.22;5032837;28;19925;-80
2022/05/15 09:38:48;;;;;;;;;;;;;;;18.76;100.00;99137.38;5016643;28;20085;-79
2022/05/15 09:44:33;;;;;;;;;;;;;;;18.78;100.00;99117.84;5032980;28;19932;-79
2022/05/15 09:47:16;;;;;;;;;;;;;;;19.01;100.00;99114.28;5032734;28;20380;-80
2022/05/15 09:49:43;;;;;;;;;;;;;;;18.98;100.00;99103.91;5032157;28;19925;-79
2022/05/15 09:52:27;;;;;;;;;;;;;;;19.03;100.00;99100.44;5032130;28;20027;-79
2022/05/15 09:55:05;;;;;;;;;;;;;;;19.62;100.00;99102.31;5032599;28;19931;-79
2022/05/15 09:57:32;;;;;;;;;;;;;;;19.52;100.00;99103.63;5032567;28;19929;-79
2022/05/15 10:00:14;;;;;;;;;;;;;;;19.53;100.00;99093.88;5049212;28;19968;-82
2022/05/15 10:04:10;;;;;;;;;;;;;;;19.37;100.00;99094.28;5009678;28;19967;-83
2022/05/15 10:07:03;;;;;;;;;;;;;;;19.06;100.00;99093.03;5072964;28;19916;-83
2022/05/15 10:09:33;;;;;;;;;;;;;;;19.11;100.00;99090.34;5073134;28;20295;-83
2022/05/15 10:12:19;;;;;;;;;;;;;;;19.06;100.00;99088.16;5073127;28;19997;-83
2022/05/15 10:14:57;;;;;;;;;;;;;;;19.34;100.00;99083.16;5073116;28;19975;-84
2022/05/15 10:17:25;;;;;;;;;;;;;;;19.04;100.00;99079.34;5071530;28;19925;-83
2022/05/15 10:19:56;;;;;;;;;;;;;;;18.83;100.00;99088.09;5071853;28;19924;-85
2022/05/15 10:22:27;;;;;;;;;;;;;;;18.35;100.00;99077.88;5070240;28;20292;-84
2022/05/15 10:25:16;;;;;;;;;;;;;;;19.02;100.00;99093.19;5054032;28;20553;-84
2022/05/15 10:27:48;;;;;;;;;;;;;;;18.69;100.00;99086.75;5028159;28;20394;-84
2022/05/15 10:30:29;;;;;;;;;;;;;;;18.70;100.00;99085.50;5091370;28;19933;-84
2022/05/15 10:33:01;;;;;;;;;;;;;;;18.37;100.00;99098.00;5040107;28;19925;-84
2022/05/15 10:35:45;;;;;;;;;;;;;;;18.28;100.00;99090.28;5072534;28;19931;-83
2022/05/15 10:38:21;;;;;;;;;;;;;;;18.36;100.00;99094.38;5056712;28;19925;-80
2022/05/15 10:41:09;;;;;;;;;;;;;;;18.32;100.00;99101.47;5074390;28;19924;-79
2022/05/15 10:43:53;;;;;;;;;;;;;;;18.28;100.00;99095.19;5072265;28;20375;-82
2022/05/15 10:46:38;;;;;;;;;;;;;;;18.28;100.00;99095.19;5055838;28;19925;-81
2022/05/15 10:49:24;;;;;;;;;;;;;;;18.44;100.00;99090.00;5039137;28;19924;-81
2022/05/15 10:51:54;;;;;;;;;;;;;;;18.69;100.00;99092.41;5039440;28;19924;-82
2022/05/15 10:57:22;;;;;;;;;;;;;;;19.48;100.00;99086.03;5074152;28;19925;-81
2022/05/15 10:59:53;;;;;;;;;;;;;;;19.51;100.00;99082.22;5056386;28;19956;-80
2022/05/15 11:02:35;;;;;;;;;;;;;;;20.04;100.00;99076.56;5085363;28;19924;-81
2022/05/15 11:05:21;;;;;;;;;;;;;;;19.75;100.00;99072.91;5074837;28;19924;-81
2022/05/15 11:08:07;;;;;;;;;;;;;;;20.11;100.00;99069.75;5041104;28;19948;-81
2022/05/15 11:10:43;;;;;;;;;;;;;;;20.05;100.00;99060.34;5072719;28;19925;-81
2022/05/15 11:13:24;;;;;;;;;;;;;;;20.17;100.00;99059.31;5072561;28;19925;-81
2022/05/15 11:16:11;;;;;;;;;;;;;;;20.07;100.00;99058.59;5056100;28;19925;-81
2022/05/15 11:18:46;;;;;;;;;;;;;;;20.44;100.00;99059.00;5056142;28;19924;-81
2022/05/15 11:25:28;;;;;;;;;;;;;;;20.17;100.00;99050.81;5073641;28;20272;-81
2022/05/15 11:31:57;;;;;;;;;;;;;;;20.64;100.00;99061.94;5086166;28;19920;-81
2022/05/15 11:34:50;;;;;;;;;;;;;;;20.63;100.00;99054.69;5055591;28;20011;-81
2022/05/15 11:37:36;;;;;;;;;;;;;;;20.81;100.00;99048.78;5059124;28;19978;-81
2022/05/15 11:40:04;;;;;;;;;;;;;;;20.73;100.00;99047.63;5077185;28;19925;-81
2022/05/15 11:42:31;;;;;;;;;;;;;;;20.74;100.00;99049.97;5059014;28;19932;-82
2022/05/15 11:45:18;;;;;;;;;;;;;;;20.76;100.00;99046.63;5094810;28;19931;-81
2022/05/15 11:48:10;;;;;;;;;;;;;;;20.58;100.00;99042.00;5088130;28;19955;-81
2022/05/15 11:50:57;;;;;;;;;;;;;;;20.64;100.00;99044.91;5077095;28;19924;-81
2022/05/15 11:53:33;;;;;;;;;;;;;;;20.90;100.00;99037.31;5058700;28;19925;-82
2022/05/15 11:56:21;;;;;;;;;;;;;;;20.64;100.00;99036.38;5080975;28;21073;-84
2022/05/15 11:59:02;;;;;;;;;;;;;;;20.78;100.00;99035.59;5079247;28;19966;-82
2022/05/15 12:01:35;;;;;;;;;;;;;;;20.71;100.00;99038.81;5078538;28;19977;-82
2022/05/15 12:04:06;;;;;;;;;;;;;;;20.60;100.00;99032.97;5075472;28;19932;-82
2022/05/15 12:07:09;;;;;;;;;;;;;;;20.69;100.00;99030.03;5076837;28;20011;-82
2022/05/15 12:09:36;;;;;;;;;;;;;;;20.95;100.00;99022.41;4962734;28;19949;-83
2022/05/15 12:12:33;;;;;;;;;;;;;;;20.84;100.00;99030.78;4978959;28;19932;-82
2022/05/15 12:15:04;;;;;;;;;;;;;;;20.97;100.00;99017.03;4947519;28;19926;-82
2022/05/15 12:17:34;;;;;;;;;;;;;;;21.10;100.00;99014.63;4979135;28;19933;-82
2022/05/15 12:20:08;;;;;;;;;;;;;;;21.32;100.00;99010.03;4978810;28;20321;-82
2022/05/15 12:22:37;;;;;;;;;;;;;;;21.27;100.00;99012.78;4995235;28;19933;-82
2022/05/15 12:25:08;;;;;;;;;;;;;;;21.16;100.00;99007.75;4978628;28;19925;-82
2022/05/15 12:28:50;;;;;;;;;;;;;;;21.58;100.00;99003.63;4962830;28;19926;-83
2022/05/15 12:30:46;;;;;;;;;;;;;;;21.24;100.00;99003.22;4964415;28;19925;-82
2022/05/15 12:33:14;;;;;;;;;;;;;;;21.12;100.00;99006.41;4978430;28;20329;-82
2022/05/15 12:35:47;;;;;;;;;;;;;;;20.77;100.00;98991.41;4962408;28;19930;-82
2022/05/15 12:38:18;;;;;;;;;;;;;;;21.88;100.00;98988.72;4978412;28;19926;-83
2022/05/15 12:41:02;;;;;;;;;;;;;;;21.81;100.00;98994.84;4946526;28;20312;-81
2022/05/15 12:43:34;;;;;;;;;;;;;;;22.09;100.00;98993.06;5019577;28;19925;-81
2022/05/15 12:46:01;;;;;;;;;;;;;;;21.63;100.00;98969.56;5074733;28;19932;-81
2022/05/15 12:48:29;;;;;;;;;;;;;;;22.28;100.00;98970.75;5075189;28;19925;-81
2022/05/15 12:51:06;;;;;;;;;;;;;;;22.14;100.00;98971.63;5074604;28;19924;-81
2022/05/15 12:53:39;;;;;;;;;;;;;;;21.67;100.00;98984.34;5059131;28;19925;-81
2022/05/15 12:56:08;;;;;;;;;;;;;;;21.40;100.00;98976.28;5058188;28;19924;-82
2022/05/15 12:58:38;;;;;;;;;;;;;;;21.88;100.00;98974.50;5041803;28;19924;-82
2022/05/15 13:02:22;;;;;;;;;;;;;;;22.20;100.00;98970.41;5153515;27;19915;-83
2022/05/15 13:04:54;;;;;;;;;;;;;;;22.47;100.00;98967.00;5117874;27;20010;-83
2022/05/15 13:07:23;;;;;;;;;;;;;;;21.93;100.00;98958.78;5153346;27;19923;-84
2022/05/15 13:10:16;;;;;;;;;;;;;;;21.98;100.00;98958.81;5153025;27;19923;-84
2022/05/15 13:12:48;;;;;;;;;;;;;;;22.07;100.00;98955.03;5133333;27;20309;-84
2022/05/15 13:15:18;;;;;;;;;;;;;;;21.63;100.00;98961.03;5117895;27;19924;-86
2022/05/15 13:17:45;;;;;;;;;;;;;;;21.39;100.00;98963.34;5134266;27;20321;-84
2022/05/15 13:20:19;;;;;;;;;;;;;;;20.78;100.00;98975.97;5100431;27;20568;-84
2022/05/15 13:22:46;;;;;;;;;;;;;;;21.14;100.00;98958.41;5134412;27;20438;-83
2022/05/15 13:25:34;;;;;;;;;;;;;;;21.60;100.00;98962.03;5100271;27;19925;-84
2022/05/15 13:28:02;;;;;;;;;;;;;;;22.16;100.00;98964.16;5152374;27;20374;-82
2022/05/15 13:30:31;;;;;;;;;;;;;;;21.59;100.00;98949.09;5152869;27;19924;-83
2022/05/15 13:32:59;;;;;;;;;;;;;;;21.63;100.00;98937.50;5123134;28;19924;-83